sensor_id;sensor_type;location;lat;lon;timestamp;pressure;altitude;pressure_sealevel;temperature;humidity
49459;BME280;35354;51.296;16.924;2023-04-25T00:00:39;98626.44;;;10.82;78.85
49459;BME280;35354;51.296;16.924;2023-04-25T00:03:04;98619.25;;;10.85;78.71
49459;BME280;35354;51.296;16.924;2023-04-25T00:05:31;98616.75;;;10.84;78.72
49459;BME280;35354;51.296;16.924;2023-04-25T00:07:57;98614.88;;;10.86;78.84
49459;BME280;35354;51.296;16.924;2023-04-25T00:10:23;98631.56;;;10.83;78.91
49459;BME280;35354;51.296;16.924;2023-04-25T00:12:48;98629.78;;;10.84;78.64
49459;BME280;35354;51.296;16.924;2023-04-25T00:15:14;98622.66;;;10.73;78.74
49459;BME280;35354;51.296;16.924;2023-04-25T00:17:40;98626.53;;;10.80;78.90
49459;BME280;35354;51.296;16.924;2023-04-25T00:20:06;98611.88;;;10.65;78.65
49459;BME280;35354;51.296;16.924;2023-04-25T00:22:34;98604.06;;;10.65;78.50
49459;BME280;35354;51.296;16.924;2023-04-25T00:24:59;98618.56;;;10.69;78.81
49459;BME280;35354;51.296;16.924;2023-04-25T00:27:26;98634.16;;;10.83;78.37
49459;BME280;35354;51.296;16.924;2023-04-25T00:29:51;98608.69;;;10.74;78.65
49459;BME280;35354;51.296;16.924;2023-04-25T00:32:17;98634.50;;;10.91;78.46
49459;BME280;35354;51.296;16.924;2023-04-25T00:34:42;98624.66;;;10.82;78.48
49459;BME280;35354;51.296;16.924;2023-04-25T00:37:07;98628.56;;;10.89;78.22
49459;BME280;35354;51.296;16.924;2023-04-25T00:39:33;98642.69;;;10.85;78.61
49459;BME280;35354;51.296;16.924;2023-04-25T00:41:58;98644.47;;;10.85;78.88
49459;BME280;35354;51.296;16.924;2023-04-25T00:44:24;98642.50;;;10.88;78.88
49459;BME280;35354;51.296;16.924;2023-04-25T00:46:52;98630.63;;;10.84;78.72
49459;BME280;35354;51.296;16.924;2023-04-25T00:49:17;98630.91;;;10.80;78.50
49459;BME280;35354;51.296;16.924;2023-04-25T00:51:43;98639.03;;;10.75;78.69
49459;BME280;35354;51.296;16.924;2023-04-25T00:54:11;98634.09;;;10.70;78.93
49459;BME280;35354;51.296;16.924;2023-04-25T00:56:37;98649.03;;;10.81;79.00
49459;BME280;35354;51.296;16.924;2023-04-25T00:59:03;98609.13;;;10.54;78.84
49459;BME280;35354;51.296;16.924;2023-04-25T01:01:28;98637.84;;;10.66;78.61
49459;BME280;35354;51.296;16.924;2023-04-25T01:03:54;98650.50;;;10.58;78.64
49459;BME280;35354;51.296;16.924;2023-04-25T01:06:19;98652.59;;;10.66;78.90
49459;BME280;35354;51.296;16.924;2023-04-25T01:08:45;98636.19;;;10.51;78.93
49459;BME280;35354;51.296;16.924;2023-04-25T01:11:10;98654.59;;;10.62;78.86
49459;BME280;35354;51.296;16.924;2023-04-25T01:13:36;98650.22;;;10.63;79.33
49459;BME280;35354;51.296;16.924;2023-04-25T01:16:02;98651.41;;;10.57;79.34
49459;BME280;35354;51.296;16.924;2023-04-25T01:18:28;98624.88;;;10.38;79.21
49459;BME280;35354;51.296;16.924;2023-04-25T01:20:53;98652.63;;;10.52;79.28
49459;BME280;35354;51.296;16.924;2023-04-25T01:23:20;98624.13;;;10.36;79.07
49459;BME280;35354;51.296;16.924;2023-04-25T01:25:46;98641.03;;;10.43;79.60
49459;BME280;35354;51.296;16.924;2023-04-25T01:28:13;98642.97;;;10.39;78.94
49459;BME280;35354;51.296;16.924;2023-04-25T01:30:38;98647.25;;;10.40;79.20
49459;BME280;35354;51.296;16.924;2023-04-25T01:33:04;98635.09;;;10.27;79.38
49459;BME280;35354;51.296;16.924;2023-04-25T01:35:30;98641.69;;;10.32;79.03
49459;BME280;35354;51.296;16.924;2023-04-25T01:37:57;98656.84;;;10.40;79.00
49459;BME280;35354;51.296;16.924;2023-04-25T01:40:24;98645.16;;;10.33;78.61
49459;BME280;35354;51.296;16.924;2023-04-25T01:42:50;98647.28;;;10.26;78.75
49459;BME280;35354;51.296;16.924;2023-04-25T01:45:17;98644.06;;;10.07;78.85
49459;BME280;35354;51.296;16.924;2023-04-25T01:47:42;98662.59;;;10.16;79.18
49459;BME280;35354;51.296;16.924;2023-04-25T01:50:09;98671.06;;;10.20;79.45
49459;BME280;35354;51.296;16.924;2023-04-25T01:52:36;98654.47;;;10.07;79.88
49459;BME280;35354;51.296;16.924;2023-04-25T01:55:01;98642.78;;;9.99;79.65
49459;BME280;35354;51.296;16.924;2023-04-25T01:57:27;98659.34;;;10.13;79.86
49459;BME280;35354;51.296;16.924;2023-04-25T01:59:58;98648.34;;;9.93;79.52
49459;BME280;35354;51.296;16.924;2023-04-25T02:02:24;98638.16;;;9.90;79.72
49459;BME280;35354;51.296;16.924;2023-04-25T02:04:51;98650.50;;;10.01;79.80
49459;BME280;35354;51.296;16.924;2023-04-25T02:07:16;98654.31;;;9.95;79.69
49459;BME280;35354;51.296;16.924;2023-04-25T02:09:42;98660.72;;;10.04;80.02
49459;BME280;35354;51.296;16.924;2023-04-25T02:12:08;98638.41;;;9.86;79.80
49459;BME280;35354;51.296;16.924;2023-04-25T02:14:34;98652.72;;;9.93;79.58
49459;BME280;35354;51.296;16.924;2023-04-25T02:16:59;98656.53;;;9.87;79.80
49459;BME280;35354;51.296;16.924;2023-04-25T02:19:25;98654.47;;;9.78;80.06
49459;BME280;35354;51.296;16.924;2023-04-25T02:21:50;98650.78;;;9.82;79.96
49459;BME280;35354;51.296;16.924;2023-04-25T02:24:15;98654.38;;;9.80;79.90
49459;BME280;35354;51.296;16.924;2023-04-25T02:26:41;98645.75;;;9.79;79.65
49459;BME280;35354;51.296;16.924;2023-04-25T02:29:06;98664.78;;;9.80;79.88
49459;BME280;35354;51.296;16.924;2023-04-25T02:31:32;98635.69;;;9.59;80.53
49459;BME280;35354;51.296;16.924;2023-04-25T02:33:57;98661.91;;;9.70;80.66
49459;BME280;35354;51.296;16.924;2023-04-25T02:36:22;98648.50;;;9.62;80.56
49459;BME280;35354;51.296;16.924;2023-04-25T02:38:49;98661.41;;;9.63;81.27
49459;BME280;35354;51.296;16.924;2023-04-25T02:41:15;98652.78;;;9.63;80.93
49459;BME280;35354;51.296;16.924;2023-04-25T02:43:40;98648.94;;;9.54;81.33
49459;BME280;35354;51.296;16.924;2023-04-25T02:46:06;98650.63;;;9.55;81.11
49459;BME280;35354;51.296;16.924;2023-04-25T02:48:31;98650.22;;;9.47;81.69
49459;BME280;35354;51.296;16.924;2023-04-25T02:50:56;98635.44;;;9.33;81.81
49459;BME280;35354;51.296;16.924;2023-04-25T02:53:22;98640.06;;;9.28;81.96
49459;BME280;35354;51.296;16.924;2023-04-25T02:55:47;98657.72;;;9.37;82.04
49459;BME280;35354;51.296;16.924;2023-04-25T02:58:12;98631.34;;;9.29;82.47
49459;BME280;35354;51.296;16.924;2023-04-25T03:00:37;98644.22;;;9.31;81.96
49459;BME280;35354;51.296;16.924;2023-04-25T03:03:03;98629.69;;;9.28;82.33
49459;BME280;35354;51.296;16.924;2023-04-25T03:05:28;98635.03;;;9.25;81.87
49459;BME280;35354;51.296;16.924;2023-04-25T03:07:53;98627.16;;;9.27;82.32
49459;BME280;35354;51.296;16.924;2023-04-25T03:10:19;98622.88;;;9.25;81.95
49459;BME280;35354;51.296;16.924;2023-04-25T03:12:44;98645.66;;;9.36;82.08
49459;BME280;35354;51.296;16.924;2023-04-25T03:15:10;98630.69;;;9.25;82.03
49459;BME280;35354;51.296;16.924;2023-04-25T03:17:35;98645.53;;;9.23;82.32
49459;BME280;35354;51.296;16.924;2023-04-25T03:20:00;98649.78;;;9.24;82.27
49459;BME280;35354;51.296;16.924;2023-04-25T03:22:26;98651.28;;;9.29;82.23
49459;BME280;35354;51.296;16.924;2023-04-25T03:24:51;98657.59;;;9.24;82.39
49459;BME280;35354;51.296;16.924;2023-04-25T03:27:17;98625.44;;;9.11;82.74
49459;BME280;35354;51.296;16.924;2023-04-25T03:29:42;98619.19;;;8.99;82.25
49459;BME280;35354;51.296;16.924;2023-04-25T03:32:08;98654.31;;;9.21;82.51
49459;BME280;35354;51.296;16.924;2023-04-25T03:34:33;98638.44;;;9.11;82.26
49459;BME280;35354;51.296;16.924;2023-04-25T03:36:59;98657.19;;;9.16;82.39
49459;BME280;35354;51.296;16.924;2023-04-25T03:39:25;98660.53;;;9.18;82.35
49459;BME280;35354;51.296;16.924;2023-04-25T03:41:50;98642.19;;;9.06;82.67
49459;BME280;35354;51.296;16.924;2023-04-25T03:44:15;98669.25;;;9.17;83.09
49459;BME280;35354;51.296;16.924;2023-04-25T03:46:41;98660.72;;;9.15;82.62
49459;BME280;35354;51.296;16.924;2023-04-25T03:49:06;98642.47;;;9.01;83.10
49459;BME280;35354;51.296;16.924;2023-04-25T03:51:31;98643.06;;;9.06;82.48
49459;BME280;35354;51.296;16.924;2023-04-25T03:53:57;98664.88;;;9.18;82.79
49459;BME280;35354;51.296;16.924;2023-04-25T03:56:22;98639.84;;;9.01;82.63
49459;BME280;35354;51.296;16.924;2023-04-25T03:58:48;98664.41;;;9.11;82.93
49459;BME280;35354;51.296;16.924;2023-04-25T04:01:13;98665.56;;;9.06;82.76
49459;BME280;35354;51.296;16.924;2023-04-25T04:03:39;98656.22;;;9.03;82.87
49459;BME280;35354;51.296;16.924;2023-04-25T04:06:05;98674.28;;;9.05;83.03
49459;BME280;35354;51.296;16.924;2023-04-25T04:08:32;98678.22;;;9.12;82.77
49459;BME280;35354;51.296;16.924;2023-04-25T04:10:58;98667.06;;;9.10;83.21
49459;BME280;35354;51.296;16.924;2023-04-25T04:13:25;98654.19;;;9.08;82.85
49459;BME280;35354;51.296;16.924;2023-04-25T04:15:51;98679.56;;;9.19;82.83
49459;BME280;35354;51.296;16.924;2023-04-25T04:18:16;98681.44;;;9.31;82.23
49459;BME280;35354;51.296;16.924;2023-04-25T04:20:41;98683.81;;;9.36;82.30
49459;BME280;35354;51.296;16.924;2023-04-25T04:23:07;98685.53;;;9.35;82.33
49459;BME280;35354;51.296;16.924;2023-04-25T04:25:32;98677.13;;;9.32;82.10
49459;BME280;35354;51.296;16.924;2023-04-25T04:27:57;98660.66;;;9.31;82.28
49459;BME280;35354;51.296;16.924;2023-04-25T04:30:24;98675.91;;;9.37;82.07
49459;BME280;35354;51.296;16.924;2023-04-25T04:32:51;98676.41;;;9.44;81.69
49459;BME280;35354;51.296;16.924;2023-04-25T04:35:16;98690.38;;;9.57;81.74
49459;BME280;35354;51.296;16.924;2023-04-25T04:37:42;98678.94;;;9.60;81.12
49459;BME280;35354;51.296;16.924;2023-04-25T04:40:09;98678.03;;;9.61;81.04
49459;BME280;35354;51.296;16.924;2023-04-25T04:42:34;98672.91;;;9.59;80.92
49459;BME280;35354;51.296;16.924;2023-04-25T04:45:01;98700.91;;;9.70;81.04
49459;BME280;35354;51.296;16.924;2023-04-25T04:47:28;98676.16;;;9.63;81.07
49459;BME280;35354;51.296;16.924;2023-04-25T04:49:56;98657.97;;;9.63;80.63
49459;BME280;35354;51.296;16.924;2023-04-25T04:52:21;98672.59;;;9.80;80.02
49459;BME280;35354;51.296;16.924;2023-04-25T04:54:47;98683.75;;;9.96;79.76
49459;BME280;35354;51.296;16.924;2023-04-25T04:57:12;98689.41;;;10.03;79.38
49459;BME280;35354;51.296;16.924;2023-04-25T04:59:37;98690.84;;;10.08;79.06
49459;BME280;35354;51.296;16.924;2023-04-25T05:02:03;98681.25;;;10.09;79.31
49459;BME280;35354;51.296;16.924;2023-04-25T05:04:28;98703.25;;;10.33;78.68
49459;BME280;35354;51.296;16.924;2023-04-25T05:06:53;98704.53;;;10.55;78.34
49459;BME280;35354;51.296;16.924;2023-04-25T05:09:19;98678.03;;;10.62;77.59
49459;BME280;35354;51.296;16.924;2023-04-25T05:11:44;98699.81;;;10.88;76.63
49459;BME280;35354;51.296;16.924;2023-04-25T05:14:09;98683.66;;;10.83;75.63
49459;BME280;35354;51.296;16.924;2023-04-25T05:16:35;98671.91;;;10.90;75.64
49459;BME280;35354;51.296;16.924;2023-04-25T05:19:00;98696.28;;;11.16;75.23
49459;BME280;35354;51.296;16.924;2023-04-25T05:21:26;98699.50;;;11.34;74.61
49459;BME280;35354;51.296;16.924;2023-04-25T05:23:53;98698.47;;;11.49;73.97
49459;BME280;35354;51.296;16.924;2023-04-25T05:26:19;98682.25;;;11.59;73.35
49459;BME280;35354;51.296;16.924;2023-04-25T05:28:45;98700.69;;;11.95;72.59
49459;BME280;35354;51.296;16.924;2023-04-25T05:31:11;98664.47;;;11.91;72.20
49459;BME280;35354;51.296;16.924;2023-04-25T05:33:37;98689.28;;;12.09;71.82
49459;BME280;35354;51.296;16.924;2023-04-25T05:36:02;98667.81;;;11.93;71.61
49459;BME280;35354;51.296;16.924;2023-04-25T05:38:28;98667.91;;;11.91;71.26
49459;BME280;35354;51.296;16.924;2023-04-25T05:40:53;98670.94;;;11.85;71.14
49459;BME280;35354;51.296;16.924;2023-04-25T05:43:19;98676.78;;;11.89;70.77
49459;BME280;35354;51.296;16.924;2023-04-25T05:45:44;98686.81;;;11.95;70.68
49459;BME280;35354;51.296;16.924;2023-04-25T05:48:09;98671.78;;;11.98;70.68
49459;BME280;35354;51.296;16.924;2023-04-25T05:50:35;98667.06;;;12.04;70.80
49459;BME280;35354;51.296;16.924;2023-04-25T05:53:00;98684.69;;;12.26;70.21
49459;BME280;35354;51.296;16.924;2023-04-25T05:55:25;98692.53;;;12.38;69.72
49459;BME280;35354;51.296;16.924;2023-04-25T05:57:50;98686.47;;;12.38;68.96
49459;BME280;35354;51.296;16.924;2023-04-25T06:00:16;98662.97;;;12.38;68.92
49459;BME280;35354;51.296;16.924;2023-04-25T06:02:42;98687.00;;;12.80;68.04
49459;BME280;35354;51.296;16.924;2023-04-25T06:05:08;98684.94;;;13.09;67.59
49459;BME280;35354;51.296;16.924;2023-04-25T06:07:33;98684.22;;;13.31;66.07
49459;BME280;35354;51.296;16.924;2023-04-25T06:09:59;98663.63;;;13.50;65.97
49459;BME280;35354;51.296;16.924;2023-04-25T06:12:26;98678.59;;;13.94;65.44
49459;BME280;35354;51.296;16.924;2023-04-25T06:14:51;98649.69;;;14.07;64.45
49459;BME280;35354;51.296;16.924;2023-04-25T06:17:16;98657.47;;;14.42;64.09
49459;BME280;35354;51.296;16.924;2023-04-25T06:19:42;98681.97;;;14.86;61.88
49459;BME280;35354;51.296;16.924;2023-04-25T06:22:07;98653.94;;;14.87;60.90
49459;BME280;35354;51.296;16.924;2023-04-25T06:24:33;98670.03;;;14.93;60.82
49459;BME280;35354;51.296;16.924;2023-04-25T06:26:58;98665.84;;;14.91;61.22
49459;BME280;35354;51.296;16.924;2023-04-25T06:29:24;98671.53;;;15.07;60.13
49459;BME280;35354;51.296;16.924;2023-04-25T06:31:49;98688.09;;;15.19;60.89
49459;BME280;35354;51.296;16.924;2023-04-25T06:34:15;98666.72;;;15.23;60.67
49459;BME280;35354;51.296;16.924;2023-04-25T06:36:40;98684.09;;;15.68;59.48
49459;BME280;35354;51.296;16.924;2023-04-25T06:39:06;98675.09;;;16.12;58.60
49459;BME280;35354;51.296;16.924;2023-04-25T06:41:31;98669.31;;;16.39;56.42
49459;BME280;35354;51.296;16.924;2023-04-25T06:43:57;98680.94;;;16.77;57.07
49459;BME280;35354;51.296;16.924;2023-04-25T06:46:22;98674.63;;;17.18;55.82
49459;BME280;35354;51.296;16.924;2023-04-25T06:48:47;98672.59;;;17.80;54.00
49459;BME280;35354;51.296;16.924;2023-04-25T06:51:13;98687.88;;;18.61;53.42
49459;BME280;35354;51.296;16.924;2023-04-25T06:53:39;98675.13;;;19.47;51.51
49459;BME280;35354;51.296;16.924;2023-04-25T06:56:04;98663.72;;;20.42;49.01
49459;BME280;35354;51.296;16.924;2023-04-25T06:58:29;98659.56;;;21.25;47.70
49459;BME280;35354;51.296;16.924;2023-04-25T07:00:55;98682.81;;;22.12;46.29
49459;BME280;35354;51.296;16.924;2023-04-25T07:03:20;98670.03;;;22.63;44.56
49459;BME280;35354;51.296;16.924;2023-04-25T07:05:46;98687.56;;;23.12;43.92
49459;BME280;35354;51.296;16.924;2023-04-25T07:08:11;98676.94;;;23.12;43.19
49459;BME280;35354;51.296;16.924;2023-04-25T07:10:37;98674.75;;;22.84;43.18
49459;BME280;35354;51.296;16.924;2023-04-25T07:13:03;98674.09;;;22.82;43.49
49459;BME280;35354;51.296;16.924;2023-04-25T07:15:28;98661.31;;;23.17;42.81
49459;BME280;35354;51.296;16.924;2023-04-25T07:17:54;98662.63;;;23.67;42.25
49459;BME280;35354;51.296;16.924;2023-04-25T07:20:19;98672.25;;;24.35;41.24
49459;BME280;35354;51.296;16.924;2023-04-25T07:22:44;98657.59;;;24.54;40.95
49459;BME280;35354;51.296;16.924;2023-04-25T07:25:10;98668.13;;;24.77;40.13
49459;BME280;35354;51.296;16.924;2023-04-25T07:27:35;98653.28;;;25.04;39.83
49459;BME280;35354;51.296;16.924;2023-04-25T07:30:00;98664.81;;;25.26;39.08
49459;BME280;35354;51.296;16.924;2023-04-25T07:32:26;98656.19;;;25.24;38.77
49459;BME280;35354;51.296;16.924;2023-04-25T07:34:51;98649.72;;;25.55;38.45
49459;BME280;35354;51.296;16.924;2023-04-25T07:37:17;98667.06;;;26.22;38.02
49459;BME280;35354;51.296;16.924;2023-04-25T07:39:44;98659.38;;;26.40;37.27
49459;BME280;35354;51.296;16.924;2023-04-25T07:42:11;98670.34;;;26.24;37.24
49459;BME280;35354;51.296;16.924;2023-04-25T07:44:36;98664.72;;;25.20;38.06
49459;BME280;35354;51.296;16.924;2023-04-25T07:47:07;98647.63;;;25.29;38.78
49459;BME280;35354;51.296;16.924;2023-04-25T07:49:36;98644.19;;;25.35;38.46
49459;BME280;35354;51.296;16.924;2023-04-25T07:52:03;98656.88;;;24.97;38.34
49459;BME280;35354;51.296;16.924;2023-04-25T07:54:28;98674.25;;;23.43;40.82
49459;BME280;35354;51.296;16.924;2023-04-25T07:56:54;98674.84;;;21.80;41.86
49459;BME280;35354;51.296;16.924;2023-04-25T07:59:20;98682.94;;;19.92;44.41
49459;BME280;35354;51.296;16.924;2023-04-25T08:01:45;98675.53;;;18.89;46.23
49459;BME280;35354;51.296;16.924;2023-04-25T08:04:11;98673.31;;;18.19;48.51
49459;BME280;35354;51.296;16.924;2023-04-25T08:06:36;98670.38;;;17.76;49.63
49459;BME280;35354;51.296;16.924;2023-04-25T08:09:02;98672.56;;;17.51;49.81
49459;BME280;35354;51.296;16.924;2023-04-25T08:11:28;98660.09;;;17.14;51.11
49459;BME280;35354;51.296;16.924;2023-04-25T08:13:53;98668.78;;;16.86;50.98
49459;BME280;35354;51.296;16.924;2023-04-25T08:16:19;98679.03;;;16.58;51.78
49459;BME280;35354;51.296;16.924;2023-04-25T08:18:44;98689.25;;;16.21;53.00
49459;BME280;35354;51.296;16.924;2023-04-25T08:21:09;98679.16;;;16.16;53.08
49459;BME280;35354;51.296;16.924;2023-04-25T08:23:36;98684.25;;;16.18;53.72
49459;BME280;35354;51.296;16.924;2023-04-25T08:26:02;98689.59;;;16.28;54.09
49459;BME280;35354;51.296;16.924;2023-04-25T08:28:27;98679.91;;;16.28;53.78
49459;BME280;35354;51.296;16.924;2023-04-25T08:30:53;98681.44;;;16.31;53.76
49459;BME280;35354;51.296;16.924;2023-04-25T08:33:18;98673.22;;;16.55;53.84
49459;BME280;35354;51.296;16.924;2023-04-25T08:35:44;98673.59;;;16.81;52.98
49459;BME280;35354;51.296;16.924;2023-04-25T08:38:10;98662.72;;;16.95;52.69
49459;BME280;35354;51.296;16.924;2023-04-25T08:40:37;98686.25;;;16.96;52.58
49459;BME280;35354;51.296;16.924;2023-04-25T08:43:04;98663.25;;;16.89;52.96
49459;BME280;35354;51.296;16.924;2023-04-25T08:45:31;98694.84;;;17.08;52.14
49459;BME280;35354;51.296;16.924;2023-04-25T08:47:57;98660.28;;;16.73;51.82
49459;BME280;35354;51.296;16.924;2023-04-25T08:50:24;98693.34;;;16.65;53.40
49459;BME280;35354;51.296;16.924;2023-04-25T08:52:53;98698.81;;;16.53;53.32
49459;BME280;35354;51.296;16.924;2023-04-25T08:55:19;98686.53;;;16.63;54.49
49459;BME280;35354;51.296;16.924;2023-04-25T08:57:46;98683.19;;;16.82;54.08
49459;BME280;35354;51.296;16.924;2023-04-25T09:00:12;98702.06;;;17.16;52.18
49459;BME280;35354;51.296;16.924;2023-04-25T09:02:39;98689.75;;;17.16;51.14
49459;BME280;35354;51.296;16.924;2023-04-25T09:05:05;98683.59;;;16.96;51.36
49459;BME280;35354;51.296;16.924;2023-04-25T09:07:32;98684.84;;;16.92;51.36
49459;BME280;35354;51.296;16.924;2023-04-25T09:09:57;98708.28;;;17.05;51.46
49459;BME280;35354;51.296;16.924;2023-04-25T09:12:25;98700.38;;;16.95;52.32
49459;BME280;35354;51.296;16.924;2023-04-25T09:15:11;98698.13;;;16.81;52.36
49459;BME280;35354;51.296;16.924;2023-04-25T09:17:37;98710.19;;;16.93;52.58
49459;BME280;35354;51.296;16.924;2023-04-25T09:20:10;98694.56;;;17.02;52.58
49459;BME280;35354;51.296;16.924;2023-04-25T09:22:37;98690.84;;;17.04;52.04
49459;BME280;35354;51.296;16.924;2023-04-25T09:25:09;98692.75;;;16.92;51.96
49459;BME280;35354;51.296;16.924;2023-04-25T09:27:35;98684.22;;;16.69;51.20
49459;BME280;35354;51.296;16.924;2023-04-25T09:30:01;98692.44;;;16.55;51.85
49459;BME280;35354;51.296;16.924;2023-04-25T09:32:27;98703.50;;;16.18;52.62
49459;BME280;35354;51.296;16.924;2023-04-25T09:34:54;98696.78;;;15.84;53.28
49459;BME280;35354;51.296;16.924;2023-04-25T09:37:30;98715.72;;;15.66;54.27
49459;BME280;35354;51.296;16.924;2023-04-25T09:39:57;98727.25;;;15.43;55.22
49459;BME280;35354;51.296;16.924;2023-04-25T09:42:26;98725.66;;;15.08;55.09
49459;BME280;35354;51.296;16.924;2023-04-25T09:44:53;98702.72;;;14.67;56.15
49459;BME280;35354;51.296;16.924;2023-04-25T09:47:19;98706.78;;;14.48;56.81
49459;BME280;35354;51.296;16.924;2023-04-25T09:49:47;98701.38;;;14.39;56.53
49459;BME280;35354;51.296;16.924;2023-04-25T09:52:19;98707.50;;;14.51;56.86
49459;BME280;35354;51.296;16.924;2023-04-25T09:54:46;98719.84;;;14.93;56.55
49459;BME280;35354;51.296;16.924;2023-04-25T09:57:20;98722.84;;;15.43;56.03
49459;BME280;35354;51.296;16.924;2023-04-25T09:59:47;98703.97;;;15.82;55.35
49459;BME280;35354;51.296;16.924;2023-04-25T10:02:15;98721.50;;;16.23;54.54
49459;BME280;35354;51.296;16.924;2023-04-25T10:04:41;98721.47;;;16.44;52.86
49459;BME280;35354;51.296;16.924;2023-04-25T10:07:08;98708.34;;;16.44;53.28
49459;BME280;35354;51.296;16.924;2023-04-25T10:09:36;98716.56;;;16.60;51.71
49459;BME280;35354;51.296;16.924;2023-04-25T10:12:02;98724.56;;;16.59;50.14
49459;BME280;35354;51.296;16.924;2023-04-25T10:14:29;98697.34;;;16.39;49.88
49459;BME280;35354;51.296;16.924;2023-04-25T10:16:55;98702.25;;;16.43;50.58
49459;BME280;35354;51.296;16.924;2023-04-25T10:19:23;98691.38;;;16.27;50.86
49459;BME280;35354;51.296;16.924;2023-04-25T10:22:03;98713.09;;;16.29;51.16
49459;BME280;35354;51.296;16.924;2023-04-25T10:24:29;98688.97;;;16.14;51.17
49459;BME280;35354;51.296;16.924;2023-04-25T10:26:56;98710.97;;;16.44;51.15
49459;BME280;35354;51.296;16.924;2023-04-25T10:29:25;98702.97;;;16.55;51.50
49459;BME280;35354;51.296;16.924;2023-04-25T10:31:51;98702.38;;;16.52;51.28
49459;BME280;35354;51.296;16.924;2023-04-25T10:34:17;98676.00;;;16.53;52.33
49459;BME280;35354;51.296;16.924;2023-04-25T10:36:43;98677.78;;;16.53;50.88
49459;BME280;35354;51.296;16.924;2023-04-25T10:39:22;98695.78;;;16.57;51.07
49459;BME280;35354;51.296;16.924;2023-04-25T10:42:01;98679.31;;;16.25;50.72
49459;BME280;35354;51.296;16.924;2023-04-25T10:44:30;98697.34;;;16.08;50.24
49459;BME280;35354;51.296;16.924;2023-04-25T10:46:57;98683.72;;;15.93;50.51
49459;BME280;35354;51.296;16.924;2023-04-25T10:49:30;98707.03;;;16.08;51.10
49459;BME280;35354;51.296;16.924;2023-04-25T10:52:27;98690.41;;;16.28;50.66
49459;BME280;35354;51.296;16.924;2023-04-25T10:54:55;98654.19;;;16.32;49.89
49459;BME280;35354;51.296;16.924;2023-04-25T10:57:41;98701.34;;;16.64;49.27
49459;BME280;35354;51.296;16.924;2023-04-25T11:02:55;98678.06;;;16.50;49.41
49459;BME280;35354;51.296;16.924;2023-04-25T11:05:33;98683.97;;;16.42;48.90
49459;BME280;35354;51.296;16.924;2023-04-25T11:07:59;98702.53;;;16.50;49.73
49459;BME280;35354;51.296;16.924;2023-04-25T11:10:32;98699.44;;;16.35;49.65
49459;BME280;35354;51.296;16.924;2023-04-25T11:12:58;98701.72;;;15.98;49.90
49459;BME280;35354;51.296;16.924;2023-04-25T11:15:23;98682.50;;;15.98;50.50
49459;BME280;35354;51.296;16.924;2023-04-25T11:17:51;98682.88;;;16.14;49.70
49459;BME280;35354;51.296;16.924;2023-04-25T11:20:17;98701.84;;;16.48;49.56
49459;BME280;35354;51.296;16.924;2023-04-25T11:22:46;98687.53;;;16.71;49.69
49459;BME280;35354;51.296;16.924;2023-04-25T11:25:13;98691.91;;;16.92;49.10
49459;BME280;35354;51.296;16.924;2023-04-25T11:27:52;98680.41;;;16.83;49.19
49459;BME280;35354;51.296;16.924;2023-04-25T11:30:19;98709.06;;;16.86;48.73
49459;BME280;35354;51.296;16.924;2023-04-25T11:32:45;98688.41;;;16.51;48.75
49459;BME280;35354;51.296;16.924;2023-04-25T11:35:11;98676.25;;;16.19;49.55
49459;BME280;35354;51.296;16.924;2023-04-25T11:37:39;98703.03;;;16.13;50.20
49459;BME280;35354;51.296;16.924;2023-04-25T11:40:06;98706.34;;;15.85;50.16
49459;BME280;35354;51.296;16.924;2023-04-25T11:42:32;98695.44;;;15.68;50.91
49459;BME280;35354;51.296;16.924;2023-04-25T11:44:58;98711.50;;;15.75;50.97
49459;BME280;35354;51.296;16.924;2023-04-25T11:47:31;98716.84;;;15.85;51.45
49459;BME280;35354;51.296;16.924;2023-04-25T11:50:01;98734.31;;;15.95;51.70
49459;BME280;35354;51.296;16.924;2023-04-25T11:52:42;98721.06;;;15.97;51.63
49459;BME280;35354;51.296;16.924;2023-04-25T11:55:09;98717.47;;;15.98;51.51
49459;BME280;35354;51.296;16.924;2023-04-25T11:57:37;98708.44;;;15.91;51.49
49459;BME280;35354;51.296;16.924;2023-04-25T12:00:13;98701.00;;;15.75;51.50
49459;BME280;35354;51.296;16.924;2023-04-25T12:02:54;98713.19;;;15.76;52.00
49459;BME280;35354;51.296;16.924;2023-04-25T12:05:24;98717.50;;;15.66;51.86
49459;BME280;35354;51.296;16.924;2023-04-25T12:07:49;98716.38;;;15.80;51.88
49459;BME280;35354;51.296;16.924;2023-04-25T12:10:16;98695.13;;;15.83;52.04
49459;BME280;35354;51.296;16.924;2023-04-25T12:12:43;98696.28;;;15.90;51.71
49459;BME280;35354;51.296;16.924;2023-04-25T12:15:13;98725.75;;;15.93;51.64
49459;BME280;35354;51.296;16.924;2023-04-25T12:17:41;98718.56;;;15.95;51.77
49459;BME280;35354;51.296;16.924;2023-04-25T12:20:08;98704.59;;;15.74;52.05
49459;BME280;35354;51.296;16.924;2023-04-25T12:22:34;98719.16;;;15.67;51.89
49459;BME280;35354;51.296;16.924;2023-04-25T12:24:59;98711.13;;;15.47;52.41
49459;BME280;35354;51.296;16.924;2023-04-25T12:27:25;98724.19;;;15.59;52.50
49459;BME280;35354;51.296;16.924;2023-04-25T12:29:53;98702.94;;;15.62;52.80
49459;BME280;35354;51.296;16.924;2023-04-25T12:32:19;98694.97;;;15.84;52.55
49459;BME280;35354;51.296;16.924;2023-04-25T12:34:45;98708.69;;;16.09;52.34
49459;BME280;35354;51.296;16.924;2023-04-25T12:37:10;98713.16;;;16.18;52.67
49459;BME280;35354;51.296;16.924;2023-04-25T12:39:37;98707.00;;;16.29;51.91
49459;BME280;35354;51.296;16.924;2023-04-25T12:42:02;98704.16;;;16.41;51.78
49459;BME280;35354;51.296;16.924;2023-04-25T12:44:28;98713.47;;;16.55;51.93
49459;BME280;35354;51.296;16.924;2023-04-25T12:46:54;98701.09;;;16.36;50.92
49459;BME280;35354;51.296;16.924;2023-04-25T12:49:20;98698.59;;;16.35;51.94
49459;BME280;35354;51.296;16.924;2023-04-25T12:51:45;98696.69;;;16.46;51.74